sensor_id;sensor_type;location;lat;lon;timestamp;pressure;altitude;pressure_sealevel;temperature;humidity
10806;BME280;5455;53.224;6.000;2023-08-17T00:01:58;102293.03;;;15.88;100.00
10806;BME280;5455;53.224;6.000;2023-08-17T00:04:25;102290.59;;;15.86;100.00
10806;BME280;5455;53.224;6.000;2023-08-17T00:06:52;102298.59;;;15.88;100.00
10806;BME280;5455;53.224;6.000;2023-08-17T00:09:19;102298.59;;;15.88;100.00
10806;BME280;5455;53.224;6.000;2023-08-17T00:11:47;102290.06;;;15.81;100.00
10806;BME280;5455;53.224;6.000;2023-08-17T00:14:14;102300.38;;;15.80;100.00
10806;BME280;5455;53.224;6.000;2023-08-17T00:16:41;102301.56;;;15.79;100.00
10806;BME280;5455;53.224;6.000;2023-08-17T00:19:08;102295.53;;;15.77;100.00
10806;BME280;5455;53.224;6.000;2023-08-17T00:21:35;102294.28;;;15.75;100.00
10806;BME280;5455;53.224;6.000;2023-08-17T00:24:02;102291.50;;;15.75;100.00
10806;BME280;5455;53.224;6.000;2023-08-17T00:26:30;102298.94;;;15.71;100.00
10806;BME280;5455;53.224;6.000;2023-08-17T00:28:57;102290.94;;;15.69;100.00
10806;BME280;5455;53.224;6.000;2023-08-17T00:31:24;102296.88;;;15.68;100.00
10806;BME280;5455;53.224;6.000;2023-08-17T00:33:51;102294.34;;;15.63;100.00
10806;BME280;5455;53.224;6.000;2023-08-17T00:36:18;102294.00;;;15.64;100.00
10806;BME280;5455;53.224;6.000;2023-08-17T00:38:45;102287.34;;;15.69;100.00
10806;BME280;5455;53.224;6.000;2023-08-17T00:41:12;102294.81;;;15.65;100.00
10806;BME280;5455;53.224;6.000;2023-08-17T00:43:39;102292.38;;;15.63;100.00
10806;BME280;5455;53.224;6.000;2023-08-17T00:46:06;102288.16;;;15.54;100.00
10806;BME280;5455;53.224;6.000;2023-08-17T00:48:34;102288.44;;;15.49;100.00
10806;BME280;5455;53.224;6.000;2023-08-17T00:51:02;102280.22;;;15.40;100.00
10806;BME280;5455;53.224;6.000;2023-08-17T00:53:31;102280.56;;;15.38;100.00
10806;BME280;5455;53.224;6.000;2023-08-17T00:56:01;102279.31;;;15.36;100.00
10806;BME280;5455;53.224;6.000;2023-08-17T00:58:29;102273.75;;;15.36;100.00
10806;BME280;5455;53.224;6.000;2023-08-17T01:00:56;102269.47;;;15.38;100.00
10806;BME280;5455;53.224;6.000;2023-08-17T01:03:24;102277.91;;;15.42;100.00
10806;BME280;5455;53.224;6.000;2023-08-17T01:05:56;102265.63;;;15.43;100.00
10806;BME280;5455;53.224;6.000;2023-08-17T01:08:24;102264.97;;;15.34;100.00
10806;BME280;5455;53.224;6.000;2023-08-17T01:13:27;102264.28;;;15.37;100.00
10806;BME280;5455;53.224;6.000;2023-08-17T01:15:58;102265.09;;;15.37;100.00
10806;BME280;5455;53.224;6.000;2023-08-17T01:18:31;102254.91;;;15.29;100.00
10806;BME280;5455;53.224;6.000;2023-08-17T01:21:02;102263.63;;;15.28;100.00
10806;BME280;5455;53.224;6.000;2023-08-17T01:23:30;102263.63;;;15.28;100.00
10806;BME280;5455;53.224;6.000;2023-08-17T01:25:57;102264.44;;;15.28;100.00
10806;BME280;5455;53.224;6.000;2023-08-17T01:28:25;102263.31;;;15.17;100.00
10806;BME280;5455;53.224;6.000;2023-08-17T01:30:57;102268.53;;;15.19;100.00
10806;BME280;5455;53.224;6.000;2023-08-17T01:33:31;102260.66;;;15.21;100.00
10806;BME280;5455;53.224;6.000;2023-08-17T01:36:05;102263.69;;;15.16;100.00
10806;BME280;5455;53.224;6.000;2023-08-17T01:38:34;102268.09;;;15.17;100.00
10806;BME280;5455;53.224;6.000;2023-08-17T01:41:03;102266.91;;;15.18;100.00
10806;BME280;5455;53.224;6.000;2023-08-17T01:43:31;102261.84;;;15.20;100.00
10806;BME280;5455;53.224;6.000;2023-08-17T01:45:59;102258.25;;;15.19;100.00
10806;BME280;5455;53.224;6.000;2023-08-17T01:48:26;102255.38;;;15.16;100.00
10806;BME280;5455;53.224;6.000;2023-08-17T01:50:53;102258.59;;;15.18;100.00
10806;BME280;5455;53.224;6.000;2023-08-17T01:53:20;102260.66;;;15.21;100.00
10806;BME280;5455;53.224;6.000;2023-08-17T01:55:48;102260.75;;;15.24;100.00
10806;BME280;5455;53.224;6.000;2023-08-17T01:58:18;102248.72;;;15.20;100.00
10806;BME280;5455;53.224;6.000;2023-08-17T02:00:45;102252.31;;;15.21;100.00
10806;BME280;5455;53.224;6.000;2023-08-17T02:03:12;102257.16;;;15.24;100.00
10806;BME280;5455;53.224;6.000;2023-08-17T02:05:47;102257.97;;;15.24;100.00
10806;BME280;5455;53.224;6.000;2023-08-17T02:08:14;102249.38;;;15.29;100.00
10806;BME280;5455;53.224;6.000;2023-08-17T02:10:41;102253.88;;;15.34;100.00
10806;BME280;5455;53.224;6.000;2023-08-17T02:13:08;102251.63;;;15.39;100.00
10806;BME280;5455;53.224;6.000;2023-08-17T02:15:44;102250.66;;;15.48;100.00
10806;BME280;5455;53.224;6.000;2023-08-17T02:18:11;102251.00;;;15.46;100.00
10806;BME280;5455;53.224;6.000;2023-08-17T02:20:38;102261.06;;;15.51;100.00
10806;BME280;5455;53.224;6.000;2023-08-17T02:23:05;102262.25;;;15.50;100.00
10806;BME280;5455;53.224;6.000;2023-08-17T02:25:32;102266.63;;;15.51;100.00
10806;BME280;5455;53.224;6.000;2023-08-17T02:28:05;102267.00;;;15.49;100.00
10806;BME280;5455;53.224;6.000;2023-08-17T02:30:32;102258.22;;;15.47;100.00
10806;BME280;5455;53.224;6.000;2023-08-17T02:32:59;102259.34;;;15.46;100.00
10806;BME280;5455;53.224;6.000;2023-08-17T02:35:26;102252.53;;;15.43;100.00
10806;BME280;5455;53.224;6.000;2023-08-17T02:37:54;102259.63;;;15.41;100.00
10806;BME280;5455;53.224;6.000;2023-08-17T02:40:21;102251.63;;;15.39;100.00
10806;BME280;5455;53.224;6.000;2023-08-17T02:42:48;102259.53;;;15.37;100.00
10806;BME280;5455;53.224;6.000;2023-08-17T02:45:15;102253.97;;;15.37;100.00
10806;BME280;5455;53.224;6.000;2023-08-17T02:47:42;102243.66;;;15.38;100.00
10806;BME280;5455;53.224;6.000;2023-08-17T02:50:10;102244.91;;;15.40;100.00
10806;BME280;5455;53.224;6.000;2023-08-17T02:52:36;102239.06;;;15.45;100.00
10806;BME280;5455;53.224;6.000;2023-08-17T02:55:04;102237.91;;;15.47;100.00
10806;BME280;5455;53.224;6.000;2023-08-17T02:57:31;102240.00;;;15.50;100.00
10806;BME280;5455;53.224;6.000;2023-08-17T02:59:58;102237.44;;;15.44;100.00
10806;BME280;5455;53.224;6.000;2023-08-17T03:02:25;102241.53;;;15.47;100.00
10806;BME280;5455;53.224;6.000;2023-08-17T03:04:52;102234.47;;;15.50;100.00
10806;BME280;5455;53.224;6.000;2023-08-17T03:07:19;102233.75;;;15.53;100.00
10806;BME280;5455;53.224;6.000;2023-08-17T03:09:46;102233.03;;;15.56;100.00
10806;BME280;5455;53.224;6.000;2023-08-17T03:12:13;102225.13;;;15.58;100.00
10806;BME280;5455;53.224;6.000;2023-08-17T03:14:40;102238.84;;;15.66;100.00
10806;BME280;5455;53.224;6.000;2023-08-17T03:17:07;102240.56;;;15.71;100.00
10806;BME280;5455;53.224;6.000;2023-08-17T03:19:34;102239.13;;;15.61;100.00
10806;BME280;5455;53.224;6.000;2023-08-17T03:22:01;102240.28;;;15.60;100.00
10806;BME280;5455;53.224;6.000;2023-08-17T03:24:29;102238.50;;;15.68;100.00
10806;BME280;5455;53.224;6.000;2023-08-17T03:26:57;102243.16;;;15.64;100.00
10806;BME280;5455;53.224;6.000;2023-08-17T03:29:25;102240.19;;;15.57;100.00
10806;BME280;5455;53.224;6.000;2023-08-17T03:31:53;102236.34;;;15.61;100.00
10806;BME280;5455;53.224;6.000;2023-08-17T03:34:22;102234.28;;;15.58;100.00
10806;BME280;5455;53.224;6.000;2023-08-17T03:36:49;102229.88;;;15.57;100.00
10806;BME280;5455;53.224;6.000;2023-08-17T03:39:17;102227.97;;;15.45;100.00
10806;BME280;5455;53.224;6.000;2023-08-17T03:41:44;102224.72;;;15.43;100.00
10806;BME280;5455;53.224;6.000;2023-08-17T03:44:11;102228.19;;;15.53;100.00
10806;BME280;5455;53.224;6.000;2023-08-17T03:46:40;102223.97;;;15.59;100.00
10806;BME280;5455;53.224;6.000;2023-08-17T03:49:07;102228.72;;;15.58;100.00
10806;BME280;5455;53.224;6.000;2023-08-17T03:51:36;102225.03;;;15.54;100.00
10806;BME280;5455;53.224;6.000;2023-08-17T03:54:03;102236.25;;;15.58;100.00
10806;BME280;5455;53.224;6.000;2023-08-17T03:56:31;102230.25;;;15.56;100.00
10806;BME280;5455;53.224;6.000;2023-08-17T03:58:58;102237.94;;;15.62;100.00
10806;BME280;5455;53.224;6.000;2023-08-17T04:01:25;102239.66;;;15.67;100.00
10806;BME280;5455;53.224;6.000;2023-08-17T04:03:52;102242.06;;;15.68;100.00
10806;BME280;5455;53.224;6.000;2023-08-17T04:06:19;102241.88;;;15.77;100.00
10806;BME280;5455;53.224;6.000;2023-08-17T04:08:46;102241.69;;;15.85;100.00
10806;BME280;5455;53.224;6.000;2023-08-17T04:11:12;102247.41;;;15.92;100.00
10806;BME280;5455;53.224;6.000;2023-08-17T04:13:39;102246.78;;;15.99;100.00
10806;BME280;5455;53.224;6.000;2023-08-17T04:16:06;102252.09;;;16.04;100.00
10806;BME280;5455;53.224;6.000;2023-08-17T04:18:33;102243.78;;;16.08;100.00
10806;BME280;5455;53.224;6.000;2023-08-17T04:21:00;102239.66;;;16.17;100.00
10806;BME280;5455;53.224;6.000;2023-08-17T04:23:27;102247.19;;;16.17;100.00
10806;BME280;5455;53.224;6.000;2023-08-17T04:25:54;102247.56;;;16.15;100.00
10806;BME280;5455;53.224;6.000;2023-08-17T04:28:22;102241.63;;;16.17;100.00
10806;BME280;5455;53.224;6.000;2023-08-17T04:30:51;102253.66;;;16.21;100.00
10806;BME280;5455;53.224;6.000;2023-08-17T04:33:18;102243.59;;;16.16;100.00
10806;BME280;5455;53.224;6.000;2023-08-17T04:35:48;102247.66;;;16.19;100.00
10806;BME280;5455;53.224;6.000;2023-08-17T04:38:16;102245.22;;;16.17;100.00
10806;BME280;5455;53.224;6.000;2023-08-17T04:40:44;102247.28;;;16.20;100.00
10806;BME280;5455;53.224;6.000;2023-08-17T04:43:12;102250.56;;;16.26;100.00
10806;BME280;5455;53.224;6.000;2023-08-17T04:45:39;102261.78;;;16.29;100.00
10806;BME280;5455;53.224;6.000;2023-08-17T04:48:06;102254.34;;;16.33;100.00
10806;BME280;5455;53.224;6.000;2023-08-17T04:50:34;102258.88;;;16.41;100.00
10806;BME280;5455;53.224;6.000;2023-08-17T04:53:02;102254.56;;;16.44;100.00
10806;BME280;5455;53.224;6.000;2023-08-17T04:55:30;102251.63;;;16.37;100.00
10806;BME280;5455;53.224;6.000;2023-08-17T04:57:58;102262.09;;;16.43;100.00
10806;BME280;5455;53.224;6.000;2023-08-17T05:00:26;102251.34;;;16.42;100.00
10806;BME280;5455;53.224;6.000;2023-08-17T05:02:56;102248.38;;;16.35;100.00
10806;BME280;5455;53.224;6.000;2023-08-17T05:05:28;102246.00;;;16.33;100.00
10806;BME280;5455;53.224;6.000;2023-08-17T05:07:55;102244.78;;;16.34;100.00
10806;BME280;5455;53.224;6.000;2023-08-17T05:10:22;102244.53;;;16.39;100.00
10806;BME280;5455;53.224;6.000;2023-08-17T05:12:49;102242.09;;;16.38;100.00
10806;BME280;5455;53.224;6.000;2023-08-17T05:15:16;102236.59;;;16.41;100.00
10806;BME280;5455;53.224;6.000;2023-08-17T05:17:43;102230.81;;;16.50;100.00
10806;BME280;5455;53.224;6.000;2023-08-17T05:20:11;102232.19;;;16.56;100.00
10806;BME280;5455;53.224;6.000;2023-08-17T05:22:39;102233.38;;;16.55;100.00
10806;BME280;5455;53.224;6.000;2023-08-17T05:25:07;102239.56;;;16.48;100.00
10806;BME280;5455;53.224;6.000;2023-08-17T05:27:36;102242.59;;;16.43;100.00
10806;BME280;5455;53.224;6.000;2023-08-17T05:30:03;102245.56;;;16.50;100.00
10806;BME280;5455;53.224;6.000;2023-08-17T05:32:30;102245.13;;;16.48;100.00
10806;BME280;5455;53.224;6.000;2023-08-17T05:34:58;102244.66;;;16.46;100.00
10806;BME280;5455;53.224;6.000;2023-08-17T05:37:25;102255.53;;;16.51;100.00
10806;BME280;5455;53.224;6.000;2023-08-17T05:39:52;102250.41;;;16.53;100.00
10806;BME280;5455;53.224;6.000;2023-08-17T05:42:19;102248.16;;;16.59;100.00
10806;BME280;5455;53.224;6.000;2023-08-17T05:44:46;102243.81;;;16.62;100.00
10806;BME280;5455;53.224;6.000;2023-08-17T05:47:13;102248.66;;;16.65;100.00
10806;BME280;5455;53.224;6.000;2023-08-17T05:49:44;102244.72;;;16.66;100.00
10806;BME280;5455;53.224;6.000;2023-08-17T05:52:11;102253.97;;;16.70;100.00
10806;BME280;5455;53.224;6.000;2023-08-17T05:54:39;102246.25;;;16.82;100.00
10806;BME280;5455;53.224;6.000;2023-08-17T05:57:07;102245.59;;;16.89;100.00
10806;BME280;5455;53.224;6.000;2023-08-17T05:59:34;102252.13;;;16.96;100.00
10806;BME280;5455;53.224;6.000;2023-08-17T06:02:03;102243.38;;;16.98;100.00
10806;BME280;5455;53.224;6.000;2023-08-17T06:04:30;102251.00;;;17.01;100.00
10806;BME280;5455;53.224;6.000;2023-08-17T06:06:57;102249.41;;;17.00;100.00
10806;BME280;5455;53.224;6.000;2023-08-17T06:09:24;102257.75;;;17.00;100.00
10806;BME280;5455;53.224;6.000;2023-08-17T06:11:51;102256.50;;;16.97;100.00
10806;BME280;5455;53.224;6.000;2023-08-17T06:14:18;102252.94;;;16.97;100.00
10806;BME280;5455;53.224;6.000;2023-08-17T06:16:45;102248.94;;;16.98;100.00
10806;BME280;5455;53.224;6.000;2023-08-17T06:19:12;102252.31;;;17.07;100.00
10806;BME280;5455;53.224;6.000;2023-08-17T06:21:39;102263.38;;;17.23;100.00
10806;BME280;5455;53.224;6.000;2023-08-17T06:24:06;102256.56;;;17.43;100.00
10806;BME280;5455;53.224;6.000;2023-08-17T06:26:33;102253.69;;;17.58;100.00
10806;BME280;5455;53.224;6.000;2023-08-17T06:29:00;102258.31;;;17.74;100.00
10806;BME280;5455;53.224;6.000;2023-08-17T06:31:30;102256.63;;;17.92;100.00
10806;BME280;5455;53.224;6.000;2023-08-17T06:33:57;102264.38;;;18.02;100.00
10806;BME280;5455;53.224;6.000;2023-08-17T06:36:24;102263.63;;;18.05;100.00
10806;BME280;5455;53.224;6.000;2023-08-17T06:38:51;102261.72;;;18.12;100.00
10806;BME280;5455;53.224;6.000;2023-08-17T06:41:18;102261.44;;;18.21;100.00
10806;BME280;5455;53.224;6.000;2023-08-17T06:43:44;102259.13;;;18.27;100.00
10806;BME280;5455;53.224;6.000;2023-08-17T06:46:12;102251.25;;;18.32;100.00
10806;BME280;5455;53.224;6.000;2023-08-17T06:48:39;102256.84;;;18.32;100.00
10806;BME280;5455;53.224;6.000;2023-08-17T06:51:06;102256.34;;;18.27;100.00
10806;BME280;5455;53.224;6.000;2023-08-17T06:53:33;102249.59;;;18.28;100.00
10806;BME280;5455;53.224;6.000;2023-08-17T06:56:00;102261.66;;;18.35;100.00
10806;BME280;5455;53.224;6.000;2023-08-17T06:58:28;102263.25;;;18.36;100.00
10806;BME280;5455;53.224;6.000;2023-08-17T07:00:55;102257.25;;;18.34;100.00
10806;BME280;5455;53.224;6.000;2023-08-17T07:03:22;102258.44;;;18.33;100.00
10806;BME280;5455;53.224;6.000;2023-08-17T07:05:49;102256.84;;;18.32;100.00
10806;BME280;5455;53.224;6.000;2023-08-17T07:08:16;102256.88;;;18.36;100.00
10806;BME280;5455;53.224;6.000;2023-08-17T07:10:43;102250.63;;;18.46;100.00
10806;BME280;5455;53.224;6.000;2023-08-17T07:13:11;102259.09;;;18.49;100.00
10806;BME280;5455;53.224;6.000;2023-08-17T07:15:38;102263.78;;;18.45;100.00
10806;BME280;5455;53.224;6.000;2023-08-17T07:18:05;102264.28;;;18.51;100.00
10806;BME280;5455;53.224;6.000;2023-08-17T07:20:32;102267.53;;;18.53;100.00
10806;BME280;5455;53.224;6.000;2023-08-17T07:23:00;102259.50;;;18.51;100.00
10806;BME280;5455;53.224;6.000;2023-08-17T07:25:27;102266.31;;;18.50;100.00
10806;BME280;5455;53.224;6.000;2023-08-17T07:27:54;102265.09;;;18.51;100.00
10806;BME280;5455;53.224;6.000;2023-08-17T07:30:21;102272.72;;;18.54;100.00
10806;BME280;5455;53.224;6.000;2023-08-17T07:32:48;102268.81;;;18.59;100.00
10806;BME280;5455;53.224;6.000;2023-08-17T07:35:15;102258.38;;;18.56;100.00
10806;BME280;5455;53.224;6.000;2023-08-17T07:37:42;102265.97;;;18.55;100.00
10806;BME280;5455;53.224;6.000;2023-08-17T07:40:18;102272.47;;;18.66;100.00
10806;BME280;5455;53.224;6.000;2023-08-17T07:42:45;102278.25;;;18.81;100.00
10806;BME280;5455;53.224;6.000;2023-08-17T07:45:13;102275.19;;;18.89;100.00
10806;BME280;5455;53.224;6.000;2023-08-17T07:47:40;102277.72;;;19.01;100.00
10806;BME280;5455;53.224;6.000;2023-08-17T07:50:08;102275.44;;;19.14;100.00
10806;BME280;5455;53.224;6.000;2023-08-17T07:52:35;102275.22;;;19.30;100.00
10806;BME280;5455;53.224;6.000;2023-08-17T07:55:02;102277.53;;;19.57;100.00
10806;BME280;5455;53.224;6.000;2023-08-17T07:57:30;102275.38;;;19.88;100.00
10806;BME280;5455;53.224;6.000;2023-08-17T07:59:57;102276.28;;;20.02;100.00
10806;BME280;5455;53.224;6.000;2023-08-17T08:02:24;102269.97;;;20.16;100.00
10806;BME280;5455;53.224;6.000;2023-08-17T08:04:51;102271.63;;;20.20;100.00
10806;BME280;5455;53.224;6.000;2023-08-17T08:07:18;102276.88;;;20.25;100.00
10806;BME280;5455;53.224;6.000;2023-08-17T08:09:45;102270.03;;;20.23;100.00
10806;BME280;5455;53.224;6.000;2023-08-17T08:12:11;102279.97;;;20.13;100.00
10806;BME280;5455;53.224;6.000;2023-08-17T08:14:38;102285.22;;;20.18;100.00
10806;BME280;5455;53.224;6.000;2023-08-17T08:17:05;102283.84;;;19.98;100.00
10806;BME280;5455;53.224;6.000;2023-08-17T08:19:32;102296.94;;;19.84;100.00
10806;BME280;5455;53.224;6.000;2023-08-17T08:22:00;102283.78;;;19.88;100.00
10806;BME280;5455;53.224;6.000;2023-08-17T08:24:29;102287.38;;;19.85;100.00
10806;BME280;5455;53.224;6.000;2023-08-17T08:27:04;102299.63;;;19.69;100.00
10806;BME280;5455;53.224;6.000;2023-08-17T08:29:32;102293.63;;;19.71;100.00
10806;BME280;5455;53.224;6.000;2023-08-17T08:31:59;102298.63;;;19.92;100.00
10806;BME280;5455;53.224;6.000;2023-08-17T08:34:29;102300.50;;;20.28;100.00
10806;BME280;5455;53.224;6.000;2023-08-17T08:36:56;102302.25;;;20.50;100.00
10806;BME280;5455;53.224;6.000;2023-08-17T08:39:25;102305.38;;;20.38;100.00
10806;BME280;5455;53.224;6.000;2023-08-17T08:41:52;102304.97;;;20.36;100.00
10806;BME280;5455;53.224;6.000;2023-08-17T08:44:19;102299.84;;;20.45;100.00
10806;BME280;5455;53.224;6.000;2023-08-17T08:46:48;102290.72;;;20.66;100.00
10806;BME280;5455;53.224;6.000;2023-08-17T08:49:19;102301.19;;;20.79;100.00
10806;BME280;5455;53.224;6.000;2023-08-17T08:51:50;102293.19;;;20.78;100.00
10806;BME280;5455;53.224;6.000;2023-08-17T08:54:22;102283.88;;;20.56;100.00
10806;BME280;5455;53.224;6.000;2023-08-17T08:57:02;102278.25;;;20.56;100.00
10806;BME280;5455;53.224;6.000;2023-08-17T08:59:30;102281.91;;;20.67;100.00
10806;BME280;5455;53.224;6.000;2023-08-17T09:01:58;102282.28;;;20.59;100.00
10806;BME280;5455;53.224;6.000;2023-08-17T09:04:25;102289.38;;;20.39;100.00
10806;BME280;5455;53.224;6.000;2023-08-17T09:06:53;102282.84;;;20.24;100.00
10806;BME280;5455;53.224;6.000;2023-08-17T09:09:21;102291.59;;;20.19;100.00
10806;BME280;5455;53.224;6.000;2023-08-17T09:11:55;102287.19;;;20.14;100.00
10806;BME280;5455;53.224;6.000;2023-08-17T09:14:22;102283.28;;;20.26;100.00
10806;BME280;5455;53.224;6.000;2023-08-17T09:16:49;102277.00;;;20.40;100.00
10806;BME280;5455;53.224;6.000;2023-08-17T09:19:18;102269.31;;;20.29;100.00
10806;BME280;5455;53.224;6.000;2023-08-17T09:21:45;102276.88;;;20.25;100.00
10806;BME280;5455;53.224;6.000;2023-08-17T09:24:16;102271.75;;;20.38;100.00
10806;BME280;5455;53.224;6.000;2023-08-17T09:26:43;102267.88;;;20.57;100.00
10806;BME280;5455;53.224;6.000;2023-08-17T09:29:18;102273.50;;;20.64;100.00
10806;BME280;5455;53.224;6.000;2023-08-17T09:31:46;102270.75;;;20.78;100.00
10806;BME280;5455;53.224;6.000;2023-08-17T09:34:14;102271.75;;;21.21;100.00
10806;BME280;5455;53.224;6.000;2023-08-17T09:36:45;102267.34;;;21.41;100.00
10806;BME280;5455;53.224;6.000;2023-08-17T09:39:13;102270.56;;;21.57;100.00
10806;BME280;5455;53.224;6.000;2023-08-17T09:41:41;102274.97;;;21.51;100.00
10806;BME280;5455;53.224;6.000;2023-08-17T09:44:11;102259.34;;;21.50;100.00
10806;BME280;5455;53.224;6.000;2023-08-17T09:46:38;102262.53;;;21.34;100.00
10806;BME280;5455;53.224;6.000;2023-08-17T09:49:05;102262.53;;;21.38;100.00
10806;BME280;5455;53.224;6.000;2023-08-17T09:51:33;102256.47;;;21.18;100.00
10806;BME280;5455;53.224;6.000;2023-08-17T09:54:00;102274.97;;;21.37;100.00
10806;BME280;5455;53.224;6.000;2023-08-17T09:56:30;102275.00;;;21.65;100.00
10806;BME280;5455;53.224;6.000;2023-08-17T09:58:58;102268.16;;;21.66;100.00
10806;BME280;5455;53.224;6.000;2023-08-17T10:01:27;102263.34;;;21.63;100.00
10806;BME280;5455;53.224;6.000;2023-08-17T10:03:56;102262.56;;;21.73;100.00
10806;BME280;5455;53.224;6.000;2023-08-17T10:06:26;102267.00;;;21.88;100.00
10806;BME280;5455;53.224;6.000;2023-08-17T10:08:56;102253.72;;;21.32;100.00
10806;BME280;5455;53.224;6.000;2023-08-17T10:11:27;102264.16;;;21.50;100.00
10806;BME280;5455;53.224;6.000;2023-08-17T10:14:02;102250.47;;;21.13;100.00
10806;BME280;5455;53.224;6.000;2023-08-17T10:16:44;102243.91;;;20.77;100.00
10806;BME280;5455;53.224;6.000;2023-08-17T10:21:48;102247.94;;;20.83;100.00
10806;BME280;5455;53.224;6.000;2023-08-17T10:24:18;102230.69;;;20.74;100.00
10806;BME280;5455;53.224;6.000;2023-08-17T10:26:46;102221.47;;;20.66;100.00
10806;BME280;5455;53.224;6.000;2023-08-17T10:29:14;102233.97;;;21.01;100.00
10806;BME280;5455;53.224;6.000;2023-08-17T10:31:46;102229.66;;;21.42;100.00
10806;BME280;5455;53.224;6.000;2023-08-17T10:34:15;102230.88;;;21.87;100.00
10806;BME280;5455;53.224;6.000;2023-08-17T10:36:43;102236.88;;;21.82;100.00
10806;BME280;5455;53.224;6.000;2023-08-17T10:39:22;102226.88;;;21.60;100.00
10806;BME280;5455;53.224;6.000;2023-08-17T10:41:55;102223.25;;;21.66;100.00
10806;BME280;5455;53.224;6.000;2023-08-17T10:47:28;102226.44;;;22.04;100.00
10806;BME280;5455;53.224;6.000;2023-08-17T10:50:03;102226.06;;;21.94;100.00
10806;BME280;5455;53.224;6.000;2023-08-17T10:52:32;102221.66;;;21.93;100.00
10806;BME280;5455;53.224;6.000;2023-08-17T10:55:01;102217.25;;;21.71;100.00
10806;BME280;5455;53.224;6.000;2023-08-17T11:00:23;102217.59;;;22.12;100.00
10806;BME280;5455;53.224;6.000;2023-08-17T11:02:58;102225.97;;;22.33;100.00
10806;BME280;5455;53.224;6.000;2023-08-17T11:05:45;102228.31;;;22.56;100.00
10806;BME280;5455;53.224;6.000;2023-08-17T11:08:34;102219.06;;;22.59;100.00
10806;BME280;5455;53.224;6.000;2023-08-17T11:11:12;102217.44;;;22.62;100.00
10806;BME280;5455;53.224;6.000;2023-08-17T11:13:42;102215.16;;;22.28;100.00
10806;BME280;5455;53.224;6.000;2023-08-17T11:16:12;102214.72;;;22.40;100.00
10806;BME280;5455;53.224;6.000;2023-08-17T11:18:44;102214.28;;;22.42;100.00
10806;BME280;5455;53.224;6.000;2023-08-17T11:21:11;102214.63;;;22.58;100.00
10806;BME280;5455;53.224;6.000;2023-08-17T11:23:45;102205.09;;;22.31;100.00
10806;BME280;5455;53.224;6.000;2023-08-17T11:26:16;102213.59;;;22.13;100.00
10806;BME280;5455;53.224;6.000;2023-08-17T11:28:43;102214.03;;;21.94;100.00
10806;BME280;5455;53.224;6.000;2023-08-17T11:31:13;102207.22;;;21.77;100.00
10806;BME280;5455;53.224;6.000;2023-08-17T11:33:43;102215.22;;;21.75;100.00
10806;BME280;5455;53.224;6.000;2023-08-17T11:36:11;102210.41;;;21.86;100.00
10806;BME280;5455;53.224;6.000;2023-08-17T11:38:40;102204.69;;;22.32;100.00
10806;BME280;5455;53.224;6.000;2023-08-17T11:41:09;102217.16;;;22.35;100.00
10806;BME280;5455;53.224;6.000;2023-08-17T11:43:43;102223.06;;;22.62;99.48
10806;BME280;5455;53.224;6.000;2023-08-17T11:46:11;102211.09;;;22.36;98.04
10806;BME280;5455;53.224;6.000;2023-08-17T11:48:39;102214.41;;;22.14;100.00
10806;BME280;5455;53.224;6.000;2023-08-17T11:51:06;102209.47;;;22.42;100.00
10806;BME280;5455;53.224;6.000;2023-08-17T11:53:37;102207.41;;;22.61;99.68
10806;BME280;5455;53.224;6.000;2023-08-17T11:56:06;102201.84;;;22.46;98.88
10806;BME280;5455;53.224;6.000;2023-08-17T11:58:40;102203.34;;;22.69;97.39
10806;BME280;5455;53.224;6.000;2023-08-17T12:01:11;102195.78;;;22.55;99.28
10806;BME280;5455;53.224;6.000;2023-08-17T12:03:39;102201.56;;;23.03;98.03
10806;BME280;5455;53.224;6.000;2023-08-17T12:06:09;102200.13;;;23.36;93.29
10806;BME280;5455;53.224;6.000;2023-08-17T12:08:36;102200.53;;;23.34;94.66
10806;BME280;5455;53.224;6.000;2023-08-17T12:11:03;102191.69;;;23.39;91.54
10806;BME280;5455;53.224;6.000;2023-08-17T12:13:32;102196.19;;;23.23;93.80
10806;BME280;5455;53.224;6.000;2023-08-17T12:16:00;102187.38;;;23.21;94.78
10806;BME280;5455;53.224;6.000;2023-08-17T12:18:27;102201.31;;;22.80;93.89
10806;BME280;5455;53.224;6.000;2023-08-17T12:20:54;102199.75;;;22.68;95.96
10806;BME280;5455;53.224;6.000;2023-08-17T12:23:21;102193.03;;;23.14;96.68
10806;BME280;5455;53.224;6.000;2023-08-17T12:25:55;102199.94;;;23.05;93.83
10806;BME280;5455;53.224;6.000;2023-08-17T12:28:23;102199.69;;;22.79;96.23
10806;BME280;5455;53.224;6.000;2023-08-17T12:30:59;102203.03;;;22.49;98.34
10806;BME280;5455;53.224;6.000;2023-08-17T12:33:26;102193.78;;;22.48;100.00
10806;BME280;5455;53.224;6.000;2023-08-17T12:35:54;102191.44;;;22.36;97.90
10806;BME280;5455;53.224;6.000;2023-08-17T12:38:23;102193.44;;;22.36;98.83
10806;BME280;5455;53.224;6.000;2023-08-17T12:40:50;102197.53;;;22.14;100.00
10806;BME280;5455;53.224;6.000;2023-08-17T12:43:17;102191.06;;;22.31;100.00
10806;BME280;5455;53.224;6.000;2023-08-17T12:45:44;102198.53;;;22.62;99.55
10806;BME280;5455;53.224;6.000;2023-08-17T12:48:11;102206.16;;;22.72;99.47
10806;BME280;5455;53.224;6.000;2023-08-17T12:50:38;102203.94;;;22.18;100.00
10806;BME280;5455;53.224;6.000;2023-08-17T12:53:08;102207.97;;;21.99;100.00
10806;BME280;5455;53.224;6.000;2023-08-17T12:55:35;102198.75;;;21.84;100.00
10806;BME280;5455;53.224;6.000;2023-08-17T12:58:02;102191.53;;;21.98;100.00
10806;BME280;5455;53.224;6.000;2023-08-17T13:00:30;102198.34;;;22.00;100.00
10806;BME280;5455;53.224;6.000;2023-08-17T13:02:57;102181.56;;;21.51;100.00
10806;BME280;5455;53.224;6.000;2023-08-17T13:05:24;102185.53;;;21.39;100.00
10806;BME280;5455;53.224;6.000;2023-08-17T13:07:51;102177.94;;;21.50;100.00